Wadley, GA (30477)

6:17 AM EDT on May 25, 2015 (GMT -0400)
Emanuel County | | Change Station
CLOSE
Current Station
Airport
Location: Swainsboro,
Elevation: 328 ft
Nearby Weather Stations

Elev 328 ft 32.61 °N, 82.37 °W | Updated 22 minutes ago

Overcast
Overcast
70 °F
Feels Like 70 °F
N
5
Wind Variable Wind from East

Today
High -- | Low -- °F
--% Chance of Precip.
Yesterday
High -- | Low -- °F
Precip. -- in
6:24 AM 8:28 PM
Waxing Crescent, 47% visible
Pressure 30.26 in
Visibility 10.0 miles
Clouds Scattered Clouds 2900 ft
Scattered Clouds 4000 ft
Overcast 4800 ft
Dew Point 66 °F
Humidity 88%
Rainfall 0.00 in
Snow Depth Not available.
UV 0 out of 12
Pollen 6.10 out of 12
Air Quality Not available.
Flu Activity Sporadic
METAR KSBO 250955Z AUTO 09004KT 10SM SCT029 SCT040 OVC048 21/19 A3026 RMK AO2

More Conditions Fewer Conditions

Pressure 30.26 in
Visibility 10.0 miles
Clouds Scattered Clouds 2900 ft
Scattered Clouds 4000 ft
Overcast 4800 ft
Dew Point 66 °F
Humidity 88%
Rainfall 0.00 in
Snow Depth Not available.
UV 0 out of 12
Pollen 6.10 out of 12
Air Quality Not available.
Flu Activity Sporadic
METAR KSBO 250955Z AUTO 09004KT 10SM SCT029 SCT040 OVC048 21/19 A3026 RMK AO2

More Conditions Fewer Conditions

10-Day Weather Forecast

Almanac

Astronomy

May. 25, 2015 Rise Set
Actual Time
Civil Twilight
Nautical Twilight
Astronomical Twilight
Moon
Length of Visible Light
Length of Day
Tomorrow will be .
, % of the Moon is Illuminated

Today's Extremes

State Highs State Lows

Community

WunderPhotos

Upload Photos

1,823,972 photos uploaded!

WunderBlogs® & News

Nearby

Air Quality

  Air Quality AQ Index Pollutant
Not available.

Snow Depth

Station Depth Elevation

Earthquake Activity

City Distance Mag. Time & Date
Minimum magnitude displayed is 2.5.

Coastal Water Temperatures

Place Temperature

Stations

Nearby Weather Stations

Station Location Temp. Windchill Dew Point Humidity Wind Precip. Elev Updated Type